Time;durP1;ratioP1;P1;durP2;ratioP2;P2;SDS_P1;SDS_P2;PMS_P1;PMS_P2;Temp;Humidity;BMP_temperature;BMP_pressure;BME280_temperature;BME280_humidity;BME280_pressure;Samples;Min_cycle;Max_cycle;Signal;HPM_P1;HPM_P2
2022/01/20 00:04:36;;;;;;;13.18;3.78;;;;;;;;;;4992848;28;20054;-62
2022/01/20 00:26:07;;;;;;;7.45;2.83;;;;;;;;;;5054321;28;20049;-62
2022/01/20 00:28:43;;;;;;;7.28;3.03;;;;;;;;;;4992446;28;20060;-61
2022/01/20 00:31:36;;;;;;;6.25;3.33;;;;;;;;;;5054361;28;20401;-62
2022/01/20 00:34:30;;;;;;;7.55;3.42;;;;;;;;;;5053927;28;20060;-62
2022/01/20 00:37:16;;;;;;;7.53;3.33;;;;;;;;;;5018709;28;20401;-61
2022/01/20 00:39:47;;;;;;;10.65;3.60;;;;;;;;;;4976098;28;20089;-62
2022/01/20 00:42:17;;;;;;;11.13;3.55;;;;;;;;;;4960430;28;20069;-62
2022/01/20 00:44:48;;;;;;;12.75;3.10;;;;;;;;;;4972522;28;20057;-62
2022/01/20 00:47:20;;;;;;;9.27;2.92;;;;;;;;;;4941373;28;20058;-62
2022/01/20 00:49:51;;;;;;;6.47;2.58;;;;;;;;;;4972815;28;20427;-62
2022/01/20 00:52:21;;;;;;;6.57;2.53;;;;;;;;;;4972535;28;20074;-62
2022/01/20 00:54:52;;;;;;;7.75;2.90;;;;;;;;;;4953104;28;20418;-61
2022/01/20 00:57:22;;;;;;;6.97;2.90;;;;;;;;;;4937039;28;20066;-63
2022/01/20 00:59:53;;;;;;;8.60;3.30;;;;;;;;;;4921443;28;20063;-62
2022/01/20 01:02:24;;;;;;;9.23;3.47;;;;;;;;;;4933374;29;20066;-61
2022/01/20 01:04:55;;;;;;;10.02;3.55;;;;;;;;;;4933881;29;20059;-62
2022/01/20 01:07:44;;;;;;;13.90;3.65;;;;;;;;;;4933503;29;20063;-62
2022/01/20 01:10:19;;;;;;;11.75;4.05;;;;;;;;;;4914592;29;20444;-61
2022/01/20 01:13:12;;;;;;;14.18;4.53;;;;;;;;;;4899400;29;20059;-62
2022/01/20 01:15:46;;;;;;;12.13;3.88;;;;;;;;;;4887807;29;20521;-62
2022/01/20 01:21:29;;;;;;;11.25;4.90;;;;;;;;;;4898353;29;20465;-62
2022/01/20 01:28:04;;;;;;;11.90;5.13;;;;;;;;;;4914735;29;20048;-61
2022/01/20 01:33:25;;;;;;;14.13;4.63;;;;;;;;;;4842498;29;20067;-61
2022/01/20 01:35:58;;;;;;;11.73;4.55;;;;;;;;;;4821485;29;20538;-61
2022/01/20 01:38:38;;;;;;;13.68;4.90;;;;;;;;;;4858040;29;20510;-61
2022/01/20 01:41:15;;;;;;;11.80;5.00;;;;;;;;;;4860347;29;20061;-62
2022/01/20 01:43:49;;;;;;;11.68;4.30;;;;;;;;;;4861137;29;20061;-61
2022/01/20 01:46:20;;;;;;;11.75;3.95;;;;;;;;;;4932701;29;20076;-62
2022/01/20 01:48:51;;;;;;;10.27;3.72;;;;;;;;;;4911746;29;20141;-62
2022/01/20 01:51:23;;;;;;;7.63;3.80;;;;;;;;;;4876092;29;20059;-61
2022/01/20 01:53:54;;;;;;;12.45;4.00;;;;;;;;;;4876197;29;20057;-63
2022/01/20 01:56:25;;;;;;;7.85;4.18;;;;;;;;;;4876033;29;20537;-61
2022/01/20 01:58:55;;;;;;;14.02;3.83;;;;;;;;;;4886426;29;20056;-62
2022/01/20 02:01:55;;;;;;;11.45;3.65;;;;;;;;;;4895464;29;20425;-61
2022/01/20 02:04:26;;;;;;;13.98;4.10;;;;;;;;;;4878992;29;20055;-61
2022/01/20 02:08:05;;;;;;;12.27;3.33;;;;;;;;;;4894695;29;20057;-61
2022/01/20 02:18:57;;;;;;;9.75;3.20;;;;;;;;;;4913552;29;20060;-62
2022/01/20 02:22:06;;;;;;;7.82;3.33;;;;;;;;;;4894133;29;20059;-62
2022/01/20 02:24:54;;;;;;;9.55;3.42;;;;;;;;;;4874868;29;20053;-62
2022/01/20 02:27:25;;;;;;;10.82;3.33;;;;;;;;;;4830612;29;20063;-62
2022/01/20 02:29:55;;;;;;;12.90;3.85;;;;;;;;;;4851961;29;20065;-61
2022/01/20 02:32:30;;;;;;;13.10;2.70;;;;;;;;;;4875303;29;20097;-62
2022/01/20 02:35:02;;;;;;;9.55;3.15;;;;;;;;;;4891974;29;20057;-62
2022/01/20 02:37:33;;;;;;;10.13;3.20;;;;;;;;;;4894470;29;20071;-62
2022/01/20 02:40:30;;;;;;;8.73;3.38;;;;;;;;;;4894078;29;20529;-61
2022/01/20 02:45:42;;;;;;;9.80;3.53;;;;;;;;;;4891206;29;20068;-61
2022/01/20 02:48:14;;;;;;;10.68;3.30;;;;;;;;;;4894855;29;20449;-61
2022/01/20 02:50:44;;;;;;;10.73;3.60;;;;;;;;;;4913136;29;20060;-61
2022/01/20 02:53:15;;;;;;;9.20;2.90;;;;;;;;;;4881671;29;20060;-61
2022/01/20 02:55:45;;;;;;;10.63;3.28;;;;;;;;;;4913010;29;20084;-62
2022/01/20 02:58:15;;;;;;;10.00;2.95;;;;;;;;;;4913160;29;20120;-62
2022/01/20 03:00:46;;;;;;;12.18;3.05;;;;;;;;;;4884562;29;20051;-61
2022/01/20 03:03:17;;;;;;;8.82;2.92;;;;;;;;;;4931002;28;20055;-62
2022/01/20 03:05:48;;;;;;;9.45;3.00;;;;;;;;;;4931728;29;20056;-61
2022/01/20 03:08:18;;;;;;;8.82;3.15;;;;;;;;;;4985210;28;20050;-63
2022/01/20 03:10:48;;;;;;;9.35;3.63;;;;;;;;;;4973715;28;20072;-62
2022/01/20 03:13:19;;;;;;;14.43;3.60;;;;;;;;;;5009180;28;20062;-62
2022/01/20 03:15:49;;;;;;;9.05;3.30;;;;;;;;;;4977646;28;20058;-61
2022/01/20 03:18:20;;;;;;;11.27;3.53;;;;;;;;;;5009244;28;20429;-62
2022/01/20 03:20:50;;;;;;;15.15;3.03;;;;;;;;;;5009061;28;20054;-62
2022/01/20 03:23:21;;;;;;;5.80;3.00;;;;;;;;;;4989387;28;20050;-62
2022/01/20 03:25:51;;;;;;;14.27;3.30;;;;;;;;;;4989438;28;20165;-62
2022/01/20 03:28:22;;;;;;;12.23;3.30;;;;;;;;;;4950342;28;20059;-62
2022/01/20 03:30:54;;;;;;;5.10;2.92;;;;;;;;;;4931193;29;20102;-61
2022/01/20 03:33:25;;;;;;;9.18;3.13;;;;;;;;;;4915382;29;20063;-61
2022/01/20 03:35:55;;;;;;;8.55;3.33;;;;;;;;;;4913257;29;20049;-62
2022/01/20 03:38:44;;;;;;;12.77;3.10;;;;;;;;;;4889672;29;20052;-61
2022/01/20 03:41:17;;;;;;;12.23;3.63;;;;;;;;;;4897288;29;20049;-61
2022/01/20 03:43:51;;;;;;;7.70;3.03;;;;;;;;;;4909740;29;20429;-61
2022/01/20 03:46:23;;;;;;;12.25;3.80;;;;;;;;;;4900880;29;20052;-62
2022/01/20 03:48:56;;;;;;;8.77;3.55;;;;;;;;;;4900658;29;20063;-62
2022/01/20 03:51:27;;;;;;;11.68;3.35;;;;;;;;;;4884885;29;20067;-61
2022/01/20 03:53:59;;;;;;;16.50;3.17;;;;;;;;;;4883235;29;20088;-61
2022/01/20 03:56:49;;;;;;;6.85;3.25;;;;;;;;;;4897087;29;20044;-61
2022/01/20 03:59:55;;;;;;;11.48;3.25;;;;;;;;;;4897224;29;20060;-62
2022/01/20 04:02:41;;;;;;;9.63;3.13;;;;;;;;;;4896764;29;20509;-63
2022/01/20 04:05:32;;;;;;;8.70;3.08;;;;;;;;;;4896920;29;20588;-61
2022/01/20 04:08:19;;;;;;;10.27;3.38;;;;;;;;;;4906992;29;20055;-61
2022/01/20 04:10:49;;;;;;;5.45;3.30;;;;;;;;;;4934918;29;20079;-61
2022/01/20 04:13:20;;;;;;;11.63;3.42;;;;;;;;;;4950144;28;20058;-62
2022/01/20 04:15:52;;;;;;;9.18;3.13;;;;;;;;;;4972808;28;20062;-61
2022/01/20 04:18:26;;;;;;;;;;;;;;;;;;4948920;29;20051;-61
2022/01/20 04:20:56;;;;;;;13.43;3.20;;;;;;;;;;4929320;29;19923;-61
2022/01/20 04:23:27;;;;;;;8.23;3.13;;;;;;;;;;4915816;29;20058;-62
2022/01/20 04:25:58;;;;;;;10.35;3.13;;;;;;;;;;4934722;29;20105;-61
2022/01/20 04:28:28;;;;;;;8.23;2.78;;;;;;;;;;4988591;28;20051;-62
2022/01/20 04:30:58;;;;;;;14.15;3.08;;;;;;;;;;4924960;28;20058;-61
2022/01/20 04:33:29;;;;;;;8.05;2.90;;;;;;;;;;4971782;28;20051;-62
2022/01/20 04:36:01;;;;;;;12.85;3.58;;;;;;;;;;4971366;28;20062;-62
2022/01/20 04:38:32;;;;;;;10.27;3.25;;;;;;;;;;4952083;29;20050;-61
2022/01/20 04:41:03;;;;;;;8.95;3.70;;;;;;;;;;4951944;29;20058;-62
2022/01/20 04:43:33;;;;;;;6.28;2.95;;;;;;;;;;4952090;29;20067;-62
2022/01/20 04:49:00;;;;;;;8.77;3.42;;;;;;;;;;4932729;29;20530;-61
2022/01/20 04:59:32;;;;;;;9.55;3.60;;;;;;;;;;4951318;29;20055;-62
2022/01/20 05:02:04;;;;;;;10.23;4.35;;;;;;;;;;4951796;29;20515;-62
2022/01/20 05:04:45;;;;;;;10.68;3.60;;;;;;;;;;4951689;29;20066;-62
2022/01/20 05:07:29;;;;;;;11.98;4.10;;;;;;;;;;4923514;29;20526;-62
2022/01/20 05:10:00;;;;;;;9.77;3.80;;;;;;;;;;4931986;29;20048;-62
2022/01/20 05:12:49;;;;;;;10.95;4.75;;;;;;;;;;4932369;29;20063;-61
2022/01/20 05:15:22;;;;;;;10.60;3.83;;;;;;;;;;4938143;28;20059;-61
2022/01/20 05:17:55;;;;;;;13.38;4.32;;;;;;;;;;4916462;29;20067;-61
2022/01/20 05:20:26;;;;;;;7.63;3.95;;;;;;;;;;4932887;29;20071;-62
2022/01/20 05:22:57;;;;;;;10.50;4.30;;;;;;;;;;4925542;29;20059;-61
2022/01/20 05:25:29;;;;;;;9.27;4.10;;;;;;;;;;4894810;29;20056;-62
2022/01/20 05:28:00;;;;;;;12.20;4.00;;;;;;;;;;4893468;29;20045;-62
2022/01/20 05:30:32;;;;;;;11.52;4.13;;;;;;;;;;4838645;29;20054;-61
2022/01/20 05:33:22;;;;;;;8.15;3.67;;;;;;;;;;4756859;29;2460001;-61
2022/01/20 05:35:53;;;;;;;7.53;4.07;;;;;;;;;;4839666;29;20058;-61
2022/01/20 05:38:23;;;;;;;7.03;3.60;;;;;;;;;;4821569;29;20047;-62
2022/01/20 05:40:53;;;;;;;6.43;3.97;;;;;;;;;;4821316;29;20062;-62
2022/01/20 05:43:24;;;;;;;8.70;3.97;;;;;;;;;;4841346;29;20502;-61
2022/01/20 05:45:55;;;;;;;9.55;4.22;;;;;;;;;;4827239;29;20057;-62
2022/01/20 05:48:35;;;;;;;10.80;4.47;;;;;;;;;;4857681;29;20403;-62
2022/01/20 05:51:32;;;;;;;8.10;4.05;;;;;;;;;;4876291;29;20060;-61
2022/01/20 05:54:03;;;;;;;8.60;4.07;;;;;;;;;;4844964;29;20057;-62
2022/01/20 05:56:36;;;;;;;9.10;4.45;;;;;;;;;;4880808;29;20059;-62
2022/01/20 05:59:06;;;;;;;10.77;5.10;;;;;;;;;;4912529;29;20413;-62
2022/01/20 06:01:38;;;;;;;15.90;4.93;;;;;;;;;;4866891;29;20063;-62
2022/01/20 06:04:14;;;;;;;7.90;4.22;;;;;;;;;;4898193;29;20055;-62
2022/01/20 06:06:45;;;;;;;15.63;5.35;;;;;;;;;;4845266;29;20072;-62
2022/01/20 06:09:17;;;;;;;11.70;4.78;;;;;;;;;;4875951;29;20094;-61
2022/01/20 06:11:48;;;;;;;9.60;5.00;;;;;;;;;;4874579;29;20050;-61
2022/01/20 06:14:19;;;;;;;7.43;3.35;;;;;;;;;;4869316;29;20049;-62
2022/01/20 06:16:50;;;;;;;6.82;2.97;;;;;;;;;;4824407;29;20058;-61
2022/01/20 06:19:21;;;;;;;7.18;3.65;;;;;;;;;;4869312;29;20534;-61
2022/01/20 06:21:51;;;;;;;9.38;4.13;;;;;;;;;;4881541;29;20064;-61
2022/01/20 06:24:21;;;;;;;12.10;4.03;;;;;;;;;;4879002;29;20061;-61
2022/01/20 06:26:52;;;;;;;9.15;4.22;;;;;;;;;;4875414;29;20064;-61
2022/01/20 06:29:25;;;;;;;11.50;4.47;;;;;;;;;;4875217;29;20061;-62
2022/01/20 06:31:55;;;;;;;12.23;5.03;;;;;;;;;;4868313;29;20053;-61
2022/01/20 06:34:25;;;;;;;8.95;4.63;;;;;;;;;;4875451;29;20053;-61
2022/01/20 06:36:56;;;;;;;9.70;4.72;;;;;;;;;;4865029;29;20050;-61
2022/01/20 06:39:26;;;;;;;12.15;4.97;;;;;;;;;;4857666;29;20054;-62
2022/01/20 06:41:57;;;;;;;9.90;4.07;;;;;;;;;;4890526;29;20048;-61
2022/01/20 06:44:27;;;;;;;11.73;5.03;;;;;;;;;;4884543;29;20044;-62
2022/01/20 06:46:58;;;;;;;10.25;4.65;;;;;;;;;;4894013;29;20540;-61
2022/01/20 06:49:36;;;;;;;13.00;5.68;;;;;;;;;;4869173;29;20049;-62
2022/01/20 06:52:07;;;;;;;;;;;;;;;;;;4875659;29;20053;-62
2022/01/20 06:54:38;;;;;;;11.75;6.20;;;;;;;;;;4890451;29;20344;-62
2022/01/20 06:57:21;;;;;;;13.85;5.68;;;;;;;;;;4884959;29;20040;-61
2022/01/20 06:59:52;;;;;;;11.35;5.07;;;;;;;;;;4889136;29;20180;-61
2022/01/20 07:02:23;;;;;;;10.65;5.00;;;;;;;;;;4856401;29;20061;-61
2022/01/20 07:04:54;;;;;;;12.60;5.15;;;;;;;;;;4833452;29;20058;-62
2022/01/20 07:07:24;;;;;;;10.43;5.07;;;;;;;;;;4856538;29;20053;-62
2022/01/20 07:10:05;;;;;;;10.98;5.30;;;;;;;;;;4846044;29;20064;-62
2022/01/20 07:12:55;;;;;;;10.57;5.15;;;;;;;;;;4848821;29;20545;-61
2022/01/20 07:15:25;;;;;;;10.80;5.15;;;;;;;;;;4838459;29;20064;-62
2022/01/20 07:17:57;;;;;;;9.73;4.45;;;;;;;;;;4822639;29;20065;-64
2022/01/20 07:20:28;;;;;;;8.13;4.43;;;;;;;;;;4842947;29;20059;-62
2022/01/20 07:23:06;;;;;;;12.05;5.15;;;;;;;;;;4852109;29;20054;-61
2022/01/20 07:25:50;;;;;;;10.20;4.35;;;;;;;;;;4874611;29;20186;-62
2022/01/20 07:28:20;;;;;;;10.45;5.60;;;;;;;;;;4893088;29;20063;-61
2022/01/20 07:30:51;;;;;;;12.55;5.13;;;;;;;;;;4912103;29;20052;-62
2022/01/20 07:33:22;;;;;;;11.23;5.40;;;;;;;;;;4844553;29;20592;-62
2022/01/20 07:35:57;;;;;;;9.00;4.97;;;;;;;;;;4858126;29;20446;-61
2022/01/20 07:38:28;;;;;;;11.30;5.13;;;;;;;;;;4825830;29;20054;-62
2022/01/20 07:40:59;;;;;;;15.80;5.35;;;;;;;;;;4812864;29;20054;-61
2022/01/20 07:43:29;;;;;;;18.42;5.15;;;;;;;;;;4867505;29;21089;-62
2022/01/20 07:46:10;;;;;;;13.25;5.28;;;;;;;;;;4853448;29;20065;-61
2022/01/20 07:49:05;;;;;;;12.20;5.78;;;;;;;;;;4838153;29;20057;-62
2022/01/20 07:51:35;;;;;;;14.23;5.57;;;;;;;;;;4837730;29;20054;-62
2022/01/20 07:54:07;;;;;;;10.80;5.30;;;;;;;;;;4874307;29;20057;-62
2022/01/20 07:56:42;;;;;;;11.23;5.55;;;;;;;;;;4858029;29;20053;-62
2022/01/20 07:59:13;;;;;;;9.35;4.75;;;;;;;;;;4823642;29;20058;-62
2022/01/20 08:01:45;;;;;;;8.65;4.60;;;;;;;;;;4855877;29;20050;-62
2022/01/20 08:04:16;;;;;;;8.95;4.13;;;;;;;;;;4889607;29;20064;-62
2022/01/20 08:06:46;;;;;;;9.52;4.90;;;;;;;;;;4863175;29;20600;-61
2022/01/20 08:09:23;;;;;;;9.85;4.95;;;;;;;;;;4877454;29;20053;-62
2022/01/20 08:12:19;;;;;;;11.23;5.57;;;;;;;;;;4856152;29;20053;-62
2022/01/20 08:15:04;;;;;;;10.38;5.22;;;;;;;;;;4893709;29;20449;-62
2022/01/20 08:17:47;;;;;;;11.02;5.03;;;;;;;;;;4887175;29;20064;-61
2022/01/20 08:20:18;;;;;;;13.80;5.20;;;;;;;;;;4930477;29;20063;-61
2022/01/20 08:22:54;;;;;;;15.80;5.80;;;;;;;;;;4933011;29;20504;-62
2022/01/20 08:25:26;;;;;;;9.80;5.28;;;;;;;;;;4931862;29;20052;-61
2022/01/20 08:27:56;;;;;;;11.20;5.30;;;;;;;;;;4934157;29;20389;-62
2022/01/20 08:30:28;;;;;;;10.48;5.38;;;;;;;;;;4930568;29;20168;-62
2022/01/20 08:33:00;;;;;;;13.30;5.57;;;;;;;;;;4933178;29;20075;-62
2022/01/20 08:35:37;;;;;;;12.35;5.35;;;;;;;;;;4877895;29;20087;-62
2022/01/20 08:38:17;;;;;;;9.52;4.93;;;;;;;;;;4877122;29;20045;-62
2022/01/20 08:40:48;;;;;;;7.93;4.90;;;;;;;;;;4877602;29;20076;-62
2022/01/20 08:43:19;;;;;;;10.38;4.95;;;;;;;;;;4877666;29;20068;-61
2022/01/20 08:45:50;;;;;;;11.65;5.60;;;;;;;;;;4889991;29;20053;-62
2022/01/20 08:48:22;;;;;;;8.75;5.30;;;;;;;;;;4887280;29;20057;-61
2022/01/20 08:51:13;;;;;;;12.32;5.15;;;;;;;;;;4908816;29;20052;-62
2022/01/20 08:54:04;;;;;;;12.93;5.03;;;;;;;;;;4896221;29;20053;-62
2022/01/20 08:56:36;;;;;;;7.90;5.32;;;;;;;;;;4933765;29;20047;-62
2022/01/20 08:59:08;;;;;;;9.38;4.95;;;;;;;;;;4905787;29;20048;-62
2022/01/20 09:01:41;;;;;;;11.70;5.47;;;;;;;;;;4878170;29;20455;-62
2022/01/20 09:04:12;;;;;;;9.80;5.15;;;;;;;;;;4877346;29;20065;-61
2022/01/20 09:07:02;;;;;;;10.52;5.28;;;;;;;;;;4874869;29;20651;-62
2022/01/20 09:09:41;;;;;;;10.82;5.35;;;;;;;;;;4895117;29;20460;-62
2022/01/20 09:17:37;;;;;;;13.88;6.28;;;;;;;;;;4873848;29;20426;-63
2022/01/20 09:20:08;;;;;;;12.23;5.60;;;;;;;;;;4876707;29;20105;-62
2022/01/20 09:22:39;;;;;;;11.60;5.60;;;;;;;;;;4827911;29;20058;-61
2022/01/20 09:25:10;;;;;;;14.00;5.72;;;;;;;;;;4818893;29;20058;-62
2022/01/20 09:27:44;;;;;;;12.73;5.28;;;;;;;;;;4803326;29;20062;-62
2022/01/20 09:30:18;;;;;;;13.43;4.88;;;;;;;;;;4803569;29;20054;-62
2022/01/20 09:35:42;;;;;;;15.27;4.50;;;;;;;;;;4821059;29;20393;-62
2022/01/20 09:38:13;;;;;;;9.75;5.22;;;;;;;;;;4841161;29;20463;-62
2022/01/20 09:40:44;;;;;;;12.15;5.00;;;;;;;;;;4876144;29;20049;-61
2022/01/20 09:43:15;;;;;;;10.32;4.85;;;;;;;;;;4845976;29;20520;-62
2022/01/20 09:45:53;;;;;;;15.23;4.97;;;;;;;;;;4876173;29;20045;-62
2022/01/20 09:48:28;;;;;;;9.30;4.65;;;;;;;;;;4913274;29;20060;-62
2022/01/20 09:51:16;;;;;;;12.43;4.47;;;;;;;;;;4904783;29;20056;-62
2022/01/20 09:54:15;;;;;;;12.73;4.20;;;;;;;;;;4906825;29;20052;-61
2022/01/20 09:56:58;;;;;;;7.22;4.32;;;;;;;;;;4894766;29;20048;-62
2022/01/20 09:59:31;;;;;;;13.73;3.95;;;;;;;;;;4910209;29;20064;-62
2022/01/20 10:02:01;;;;;;;10.27;3.83;;;;;;;;;;4910311;29;20556;-61
2022/01/20 10:04:35;;;;;;;10.10;4.47;;;;;;;;;;4895158;29;20068;-62
2022/01/20 10:07:33;;;;;;;8.65;4.00;;;;;;;;;;4907565;29;20378;-63
2022/01/20 10:10:14;;;;;;;9.15;4.35;;;;;;;;;;4875741;29;20045;-63
2022/01/20 10:13:23;;;;;;;13.38;4.75;;;;;;;;;;4866936;29;20068;-61
2022/01/20 10:16:14;;;;;;;12.52;4.65;;;;;;;;;;4834841;29;20051;-62
2022/01/20 10:18:49;;;;;;;12.77;4.28;;;;;;;;;;4835736;29;20061;-62
2022/01/20 10:21:29;;;;;;;;;;;;;;;;;;4894601;29;20052;-62
2022/01/20 10:24:17;;;;;;;9.77;3.85;;;;;;;;;;4894941;29;19923;-62
2022/01/20 10:27:14;;;;;;;8.07;4.05;;;;;;;;;;4869711;29;20049;-61
2022/01/20 10:29:59;;;;;;;10.93;3.80;;;;;;;;;;4885311;29;20053;-61
2022/01/20 10:32:46;;;;;;;11.45;3.70;;;;;;;;;;4860126;29;20068;-62
2022/01/20 10:35:19;;;;;;;11.55;3.15;;;;;;;;;;4874030;29;20052;-63
2022/01/20 10:38:01;;;;;;;7.30;2.85;;;;;;;;;;4894302;29;20063;-63
2022/01/20 10:40:57;;;;;;;7.10;2.22;;;;;;;;;;4894101;29;20521;-62
2022/01/20 10:43:35;;;;;;;10.27;2.20;;;;;;;;;;4893732;29;20048;-62
2022/01/20 10:46:50;;;;;;;5.13;1.75;;;;;;;;;;4875907;29;20068;-63
2022/01/20 10:49:32;;;;;;;6.18;1.85;;;;;;;;;;4856680;29;20053;-62
2022/01/20 10:52:07;;;;;;;3.35;2.00;;;;;;;;;;4823840;29;20053;-62
2022/01/20 10:54:43;;;;;;;4.60;1.92;;;;;;;;;;4852941;29;20530;-63
2022/01/20 10:57:29;;;;;;;3.83;1.73;;;;;;;;;;4856447;29;20053;-62
2022/01/20 11:00:07;;;;;;;6.65;1.70;;;;;;;;;;4803308;29;20068;-62
2022/01/20 11:02:57;;;;;;;6.25;2.20;;;;;;;;;;4814510;29;20062;-63
2022/01/20 11:05:30;;;;;;;5.57;2.28;;;;;;;;;;4819656;29;20057;-63
2022/01/20 11:08:05;;;;;;;6.30;1.88;;;;;;;;;;4862667;29;20050;-62
2022/01/20 11:10:39;;;;;;;2.85;1.60;;;;;;;;;;4831396;29;20434;-62
2022/01/20 11:13:33;;;;;;;4.63;1.92;;;;;;;;;;4838347;29;20073;-62
2022/01/20 11:16:04;;;;;;;4.30;2.00;;;;;;;;;;4837924;29;20046;-63
2022/01/20 11:18:37;;;;;;;4.63;1.70;;;;;;;;;;4783512;29;20066;-63
2022/01/20 11:21:07;;;;;;;5.13;1.52;;;;;;;;;;4786837;29;20058;-64
2022/01/20 11:23:43;;;;;;;2.97;1.67;;;;;;;;;;4786654;29;20074;-62
2022/01/20 11:26:47;;;;;;;3.35;1.52;;;;;;;;;;4802118;29;20059;-64
2022/01/20 11:29:48;;;;;;;6.22;1.50;;;;;;;;;;4801805;29;20062;-63
2022/01/20 11:32:35;;;;;;;3.78;1.50;;;;;;;;;;4803566;29;20062;-63
2022/01/20 11:35:16;;;;;;;4.95;1.60;;;;;;;;;;4798306;29;20078;-63
2022/01/20 11:37:59;;;;;;;4.53;1.33;;;;;;;;;;4801489;29;20047;-64
2022/01/20 11:40:29;;;;;;;2.72;1.35;;;;;;;;;;4801735;29;20073;-63
2022/01/20 11:43:10;;;;;;;6.07;1.42;;;;;;;;;;4781572;29;20073;-63
2022/01/20 11:45:50;;;;;;;2.53;1.45;;;;;;;;;;4801524;29;20096;-63
2022/01/20 11:48:25;;;;;;;3.45;1.95;;;;;;;;;;4828911;29;20107;-62
2022/01/20 11:51:06;;;;;;;6.65;1.45;;;;;;;;;;4837746;29;20502;-62
2022/01/20 11:53:41;;;;;;;5.47;1.73;;;;;;;;;;4845956;29;20050;-63
2022/01/20 11:56:12;;;;;;;3.67;1.52;;;;;;;;;;4865026;29;20053;-62
2022/01/20 11:58:52;;;;;;;3.08;1.13;;;;;;;;;;4878615;29;20493;-63
2022/01/20 12:01:27;;;;;;;4.95;1.88;;;;;;;;;;4878481;29;20611;-64
2022/01/20 12:03:58;;;;;;;3.28;1.30;;;;;;;;;;4888654;29;20420;-64
2022/01/20 12:06:47;;;;;;;3.38;1.38;;;;;;;;;;4921071;29;20055;-64
2022/01/20 12:09:35;;;;;;;2.10;1.10;;;;;;;;;;4936877;29;20431;-65
2022/01/20 12:12:21;;;;;;;1.63;1.23;;;;;;;;;;4922426;29;20527;-64
2022/01/20 12:14:51;;;;;;;2.72;1.33;;;;;;;;;;4965536;28;20388;-63
2022/01/20 12:17:22;;;;;;;2.38;1.45;;;;;;;;;;4944486;28;20123;-63
2022/01/20 12:19:56;;;;;;;1.45;1.05;;;;;;;;;;4992919;28;20057;-63
2022/01/20 12:22:26;;;;;;;2.83;1.23;;;;;;;;;;4929941;28;20073;-63
2022/01/20 12:24:58;;;;;;;6.05;1.50;;;;;;;;;;4996884;28;20073;-62
2022/01/20 12:27:29;;;;;;;5.70;1.50;;;;;;;;;;5051760;28;20057;-63
2022/01/20 12:30:00;;;;;;;2.08;1.15;;;;;;;;;;5051935;28;20041;-62
2022/01/20 12:32:31;;;;;;;2.58;1.25;;;;;;;;;;5051402;28;20057;-63
2022/01/20 12:35:02;;;;;;;3.20;1.80;;;;;;;;;;5035463;28;20048;-63
2022/01/20 12:37:39;;;;;;;2.90;1.35;;;;;;;;;;5022837;28;20053;-62
2022/01/20 12:40:23;;;;;;;3.22;1.30;;;;;;;;;;5054221;28;20041;-63
2022/01/20 12:42:53;;;;;;;2.65;1.13;;;;;;;;;;5035165;28;20059;-66
2022/01/20 12:48:18;;;;;;;2.78;1.35;;;;;;;;;;5053796;28;20045;-65
2022/01/20 12:51:19;;;;;;;5.30;1.63;;;;;;;;;;5051603;28;20064;-63
2022/01/20 12:53:56;;;;;;;3.88;1.40;;;;;;;;;;4972943;28;20066;-64
2022/01/20 12:56:31;;;;;;;3.38;1.58;;;;;;;;;;4973058;28;20089;-63
2022/01/20 12:59:03;;;;;;;5.78;1.70;;;;;;;;;;4972610;28;20558;-63
2022/01/20 13:01:56;;;;;;;2.35;1.25;;;;;;;;;;4946844;28;20063;-64
2022/01/20 13:04:30;;;;;;;2.95;1.38;;;;;;;;;;4937406;29;20051;-63
2022/01/20 13:07:02;;;;;;;2.08;1.02;;;;;;;;;;4953297;29;20063;-62
2022/01/20 13:09:50;;;;;;;3.60;0.93;;;;;;;;;;4952911;28;20055;-63
2022/01/20 13:12:36;;;;;;;6.50;1.50;;;;;;;;;;4933440;29;20614;-63
2022/01/20 13:15:18;;;;;;;4.20;1.10;;;;;;;;;;4933628;29;20066;-65
2022/01/20 13:18:00;;;;;;;1.20;0.73;;;;;;;;;;4933453;29;20063;-62
2022/01/20 13:20:31;;;;;;;1.27;1.10;;;;;;;;;;4933547;29;20412;-63
2022/01/20 13:23:54;;;;;;;3.50;0.82;;;;;;;;;;4917456;29;20064;-64
2022/01/20 13:26:08;;;;;;;1.73;0.82;;;;;;;;;;4933490;29;20618;-66
2022/01/20 13:28:38;;;;;;;3.47;0.77;;;;;;;;;;4933379;29;20067;-70
2022/01/20 13:31:18;;;;;;;1.90;0.85;;;;;;;;;;4981337;28;20069;-64
2022/01/20 13:33:49;;;;;;;6.70;0.70;;;;;;;;;;5010672;28;20094;-64
2022/01/20 13:36:21;;;;;;;3.55;0.73;;;;;;;;;;5010656;28;20125;-67
2022/01/20 13:38:59;;;;;;;1.38;0.73;;;;;;;;;;5010896;28;20151;-68
2022/01/20 13:41:29;;;;;;;;;;;;;;;;;;5021153;28;20060;-65
2022/01/20 13:47:01;;;;;;;;;;;;;;;;;;5050945;28;20053;-66
2022/01/20 13:49:31;;;;;;;2.13;0.70;;;;;;;;;;5056721;28;19928;-64
2022/01/20 13:52:07;;;;;;;3.60;0.52;;;;;;;;;;5053725;28;20060;-67
2022/01/20 13:54:43;;;;;;;3.13;0.70;;;;;;;;;;5070089;28;20056;-63
2022/01/20 13:57:38;;;;;;;1.88;0.73;;;;;;;;;;5070167;28;20061;-64
2022/01/20 14:00:11;;;;;;;5.30;0.80;;;;;;;;;;5070082;28;20045;-63
2022/01/20 14:02:47;;;;;;;1.55;0.50;;;;;;;;;;5054013;28;20064;-63
2022/01/20 14:05:21;;;;;;;4.53;0.90;;;;;;;;;;5009955;28;20053;-66
2022/01/20 14:07:52;;;;;;;1.55;0.63;;;;;;;;;;5010287;28;20061;-65
2022/01/20 14:10:22;;;;;;;5.88;0.88;;;;;;;;;;5010317;28;20545;-67
2022/01/20 14:12:52;;;;;;;5.50;1.13;;;;;;;;;;4994127;28;20057;-68
2022/01/20 14:15:25;;;;;;;1.55;0.73;;;;;;;;;;5010132;28;20042;-64
2022/01/20 14:18:00;;;;;;;2.05;0.70;;;;;;;;;;5010189;28;20072;-64
2022/01/20 14:20:32;;;;;;;0.95;0.68;;;;;;;;;;5009325;28;20544;-66
2022/01/20 14:23:05;;;;;;;2.67;0.85;;;;;;;;;;5010158;28;20058;-66
2022/01/20 14:25:36;;;;;;;1.50;1.08;;;;;;;;;;4977454;28;20053;-70
2022/01/20 14:28:07;;;;;;;2.53;0.60;;;;;;;;;;4993295;28;20057;-68
2022/01/20 14:30:38;;;;;;;0.60;0.50;;;;;;;;;;5009866;28;20050;-62
2022/01/20 14:33:08;;;;;;;1.80;0.55;;;;;;;;;;5009497;28;20161;-63
2022/01/20 14:35:39;;;;;;;3.20;0.60;;;;;;;;;;4993878;28;20053;-64
2022/01/20 14:38:23;;;;;;;3.22;0.75;;;;;;;;;;4977180;28;20078;-64
2022/01/20 14:40:55;;;;;;;0.88;0.68;;;;;;;;;;5009640;28;20695;-64
2022/01/20 14:43:25;;;;;;;2.00;0.68;;;;;;;;;;5021089;28;20053;-63
2022/01/20 14:45:55;;;;;;;1.33;0.60;;;;;;;;;;5049127;28;20067;-67
2022/01/20 14:48:46;;;;;;;1.73;0.63;;;;;;;;;;5016319;28;20063;-65
2022/01/20 14:51:16;;;;;;;1.20;0.63;;;;;;;;;;5029421;28;20068;-65
2022/01/20 14:53:46;;;;;;;2.38;0.75;;;;;;;;;;5029134;28;20049;-62
2022/01/20 14:56:19;;;;;;;2.17;0.73;;;;;;;;;;5029251;28;20056;-70
2022/01/20 14:58:50;;;;;;;2.13;0.65;;;;;;;;;;5013175;28;20053;-64
2022/01/20 15:01:21;;;;;;;;;;;;;;;;;;4996815;28;20076;-64
2022/01/20 15:03:51;;;;;;;1.00;0.77;;;;;;;;;;5029114;28;19921;-66
2022/01/20 15:06:21;;;;;;;2.13;0.82;;;;;;;;;;5029133;28;20045;-67
2022/01/20 15:08:52;;;;;;;1.20;0.85;;;;;;;;;;5029037;28;20041;-65
2022/01/20 15:11:22;;;;;;;3.72;0.63;;;;;;;;;;5029189;28;20092;-65
2022/01/20 15:13:53;;;;;;;2.15;0.70;;;;;;;;;;4989311;28;20402;-68
2022/01/20 15:16:26;;;;;;;2.08;1.00;;;;;;;;;;4989667;28;20081;-63
2022/01/20 15:18:59;;;;;;;3.50;0.80;;;;;;;;;;4941628;28;20054;-62
2022/01/20 15:21:29;;;;;;;;;;;;;;;;;;4990268;28;20058;-64
2022/01/20 15:23:59;;;;;;;2.17;0.82;;;;;;;;;;4983688;28;20381;-68
2022/01/20 15:26:30;;;;;;;1.10;0.65;;;;;;;;;;4957110;28;20062;-66
2022/01/20 15:29:00;;;;;;;1.42;0.70;;;;;;;;;;4989425;28;20069;-64
2022/01/20 15:31:40;;;;;;;3.80;0.88;;;;;;;;;;4991210;28;20046;-63
2022/01/20 15:34:14;;;;;;;1.33;0.75;;;;;;;;;;4992519;28;20553;-63
2022/01/20 15:36:48;;;;;;;2.72;0.73;;;;;;;;;;4993609;28;20058;-63
2022/01/20 15:39:19;;;;;;;1.23;0.77;;;;;;;;;;4993198;28;20058;-63
2022/01/20 15:41:50;;;;;;;0.57;0.47;;;;;;;;;;4993364;28;20089;-63
2022/01/20 15:44:22;;;;;;;2.38;0.73;;;;;;;;;;4992953;28;20054;-67
2022/01/20 15:46:53;;;;;;;5.70;0.82;;;;;;;;;;5009185;28;20538;-66
2022/01/20 15:49:24;;;;;;;;;;;;;;;;;;4993522;28;20426;-63
2022/01/20 15:51:54;;;;;;;2.05;1.00;;;;;;;;;;5006598;28;19929;-69
2022/01/20 15:54:24;;;;;;;1.88;0.70;;;;;;;;;;5012418;28;20405;-67
2022/01/20 15:56:55;;;;;;;1.23;0.52;;;;;;;;;;5012746;28;20057;-68
2022/01/20 15:59:25;;;;;;;1.95;1.05;;;;;;;;;;5012430;28;20046;-65
2022/01/20 16:01:55;;;;;;;1.90;0.70;;;;;;;;;;4987159;28;20051;-66
2022/01/20 16:04:25;;;;;;;1.58;0.95;;;;;;;;;;4938451;28;20047;-64
2022/01/20 16:06:56;;;;;;;2.60;0.70;;;;;;;;;;4954005;28;20052;-64
2022/01/20 16:09:26;;;;;;;1.50;0.73;;;;;;;;;;4977789;28;20058;-64
2022/01/20 16:11:56;;;;;;;1.10;0.70;;;;;;;;;;4985982;28;20414;-69
2022/01/20 16:14:26;;;;;;;2.90;0.90;;;;;;;;;;4944902;28;20047;-66
2022/01/20 16:16:59;;;;;;;0.98;0.75;;;;;;;;;;4976699;28;20054;-64
2022/01/20 16:19:30;;;;;;;3.22;0.90;;;;;;;;;;4960454;28;20062;-67
2022/01/20 16:22:04;;;;;;;1.23;0.57;;;;;;;;;;5003529;28;20058;-63
2022/01/20 16:24:35;;;;;;;3.83;1.00;;;;;;;;;;5022842;28;21100;-64
2022/01/20 16:27:25;;;;;;;2.95;0.93;;;;;;;;;;4998753;28;20042;-63
2022/01/20 16:29:56;;;;;;;1.92;0.65;;;;;;;;;;5025075;28;20050;-69
2022/01/20 16:32:27;;;;;;;1.73;0.50;;;;;;;;;;5021001;28;20064;-69
2022/01/20 16:34:58;;;;;;;1.10;0.52;;;;;;;;;;5002457;28;20052;-64
2022/01/20 16:37:28;;;;;;;1.30;0.82;;;;;;;;;;5018278;28;20049;-65
2022/01/20 16:39:58;;;;;;;1.38;1.05;;;;;;;;;;5011687;28;20481;-65